Time;durP1;ratioP1;P1;durP2;ratioP2;P2;SDS_P1;SDS_P2;PMS_P1;PMS_P2;Temp;Humidity;BMP_temperature;BMP_pressure;BME280_temperature;BME280_humidity;BME280_pressure;Samples;Min_cycle;Max_cycle;Signal;HPM_P1;HPM_P2
2022/10/27 00:00:26;;;;;;;1999.90;999.90;;;11.40;99.90;;;;;;5071134;28;20458;-66
2022/10/27 00:02:53;;;;;;;1999.90;999.90;;;11.40;99.90;;;;;;5070318;28;20443;-66
2022/10/27 00:05:21;;;;;;;1999.90;999.90;;;11.40;99.90;;;;;;5070395;28;20466;-67
2022/10/27 00:07:48;;;;;;;1999.90;999.90;;;11.30;99.90;;;;;;5071083;28;20478;-66
2022/10/27 00:10:15;;;;;;;1999.90;999.90;;;11.20;99.90;;;;;;5070888;28;20446;-66
2022/10/27 00:12:43;;;;;;;1999.90;999.90;;;11.20;99.90;;;;;;5069957;28;20462;-66
2022/10/27 00:15:11;;;;;;;1999.90;999.90;;;11.20;99.90;;;;;;5070331;28;20828;-66
2022/10/27 00:17:38;;;;;;;1999.90;999.90;;;11.20;99.90;;;;;;5070446;28;20482;-66
2022/10/27 00:20:05;;;;;;;1999.90;999.90;;;11.30;99.90;;;;;;5070403;28;20447;-66
2022/10/27 00:22:32;;;;;;;1999.90;999.90;;;11.40;99.90;;;;;;5069863;28;20454;-66
2022/10/27 00:24:59;;;;;;;1999.90;999.90;;;11.40;99.90;;;;;;5069567;28;20447;-66
2022/10/27 00:27:26;;;;;;;1999.90;999.90;;;11.30;99.90;;;;;;5070320;28;20446;-66
2022/10/27 00:29:55;;;;;;;1999.90;999.90;;;11.20;99.90;;;;;;5070456;28;20443;-66
2022/10/27 00:32:21;;;;;;;1999.90;999.90;;;11.20;99.90;;;;;;5069361;28;20451;-66
2022/10/27 00:34:48;;;;;;;1999.90;999.90;;;11.20;99.90;;;;;;5069701;28;20459;-66
2022/10/27 00:37:15;;;;;;;1999.90;999.90;;;11.10;99.90;;;;;;5070174;28;20490;-66
2022/10/27 00:39:41;;;;;;;1999.90;999.90;;;11.00;99.90;;;;;;5070338;28;20451;-66
2022/10/27 00:42:11;;;;;;;1999.90;999.90;;;11.00;99.90;;;;;;5069367;28;20443;-66
2022/10/27 00:44:39;;;;;;;1999.90;999.90;;;10.90;99.90;;;;;;5069717;28;20451;-66
2022/10/27 00:47:18;;;;;;;1999.90;999.90;;;10.90;99.90;;;;;;5070249;28;20434;-66
2022/10/27 00:49:50;;;;;;;1999.90;999.90;;;10.90;99.90;;;;;;5070143;28;20451;-66
2022/10/27 00:52:25;;;;;;;1999.90;999.90;;;10.90;99.90;;;;;;5069212;28;20458;-66
2022/10/27 00:54:52;;;;;;;1999.90;999.90;;;10.90;99.90;;;;;;5069681;28;20457;-66
2022/10/27 00:57:19;;;;;;;1999.90;999.90;;;10.90;99.90;;;;;;5069815;28;20494;-66
2022/10/27 00:59:45;;;;;;;1999.90;999.90;;;10.80;99.90;;;;;;5070137;28;20458;-66
2022/10/27 01:02:14;;;;;;;1999.90;999.90;;;10.90;99.90;;;;;;5069190;28;20484;-66
2022/10/27 01:04:47;;;;;;;1999.90;999.90;;;10.70;99.90;;;;;;5069900;28;21155;-66
2022/10/27 01:07:16;;;;;;;1999.90;999.90;;;10.70;99.90;;;;;;5069911;28;20444;-66
2022/10/27 01:09:44;;;;;;;1999.90;999.90;;;10.70;99.90;;;;;;5069582;28;20455;-66
2022/10/27 01:12:10;;;;;;;1999.90;999.90;;;10.70;99.90;;;;;;5069075;28;20454;-66
2022/10/27 01:14:37;;;;;;;1999.90;999.90;;;10.60;99.90;;;;;;5069432;28;20827;-66
2022/10/27 01:17:14;;;;;;;1999.90;999.90;;;10.60;99.90;;;;;;5069766;28;20486;-66
2022/10/27 01:20:09;;;;;;;1999.90;999.90;;;10.50;99.90;;;;;;5069612;28;20443;-66
2022/10/27 01:22:43;;;;;;;1999.90;999.90;;;10.60;99.90;;;;;;5069146;28;20934;-66
2022/10/27 01:25:38;;;;;;;1999.90;999.90;;;10.70;99.90;;;;;;5069368;28;20442;-66
2022/10/27 01:28:28;;;;;;;1999.90;999.90;;;10.70;99.90;;;;;;5069589;28;20468;-66
2022/10/27 01:31:02;;;;;;;1999.90;999.90;;;10.60;99.90;;;;;;5069167;28;20960;-66
2022/10/27 01:33:36;;;;;;;1999.90;999.90;;;10.60;99.90;;;;;;5069284;28;20458;-66
2022/10/27 01:36:07;;;;;;;1999.90;999.90;;;10.60;99.90;;;;;;5070690;28;20435;-66
2022/10/27 01:38:40;;;;;;;1999.90;999.90;;;10.60;99.90;;;;;;5073639;28;20569;-66
2022/10/27 01:41:12;;;;;;;1999.90;999.90;;;10.60;99.90;;;;;;5073170;28;20435;-66
2022/10/27 01:43:40;;;;;;;1999.90;999.90;;;10.60;99.90;;;;;;5073218;28;21099;-66
2022/10/27 01:46:10;;;;;;;1999.90;999.90;;;10.60;99.90;;;;;;5073216;28;20443;-66
2022/10/27 01:48:38;;;;;;;1999.90;999.90;;;10.60;99.90;;;;;;5073467;28;20455;-66
2022/10/27 01:51:06;;;;;;;1999.90;999.90;;;10.70;99.90;;;;;;5072995;28;20445;-66
2022/10/27 01:53:39;;;;;;;1999.90;999.90;;;10.70;99.90;;;;;;5071170;28;20959;-67
2022/10/27 01:56:22;;;;;;;1999.90;999.90;;;10.60;99.90;;;;;;5072144;28;20817;-66
2022/10/27 01:59:16;;;;;;;1999.90;999.90;;;10.60;99.90;;;;;;5073232;28;20493;-67
2022/10/27 02:01:55;;;;;;;1999.90;999.90;;;10.50;99.90;;;;;;5071927;28;20454;-66
2022/10/27 02:04:29;;;;;;;1999.90;999.90;;;10.50;99.90;;;;;;5072082;28;20438;-66
2022/10/27 02:07:01;;;;;;;1999.90;999.90;;;10.50;99.90;;;;;;5073323;28;20461;-66
2022/10/27 02:09:35;;;;;;;1999.90;999.90;;;10.50;99.90;;;;;;5073001;28;20467;-66
2022/10/27 02:12:07;;;;;;;1999.90;999.90;;;10.50;99.90;;;;;;5071950;28;20446;-66
2022/10/27 02:14:35;;;;;;;1999.90;999.90;;;10.50;99.90;;;;;;5072653;28;20443;-67
2022/10/27 02:17:06;;;;;;;1999.90;999.90;;;10.40;99.90;;;;;;5073414;28;20450;-66
2022/10/27 02:19:36;;;;;;;1999.90;999.90;;;10.40;99.90;;;;;;5072988;28;21031;-66
2022/10/27 02:22:05;;;;;;;1999.90;999.90;;;10.40;99.90;;;;;;5072170;28;20453;-66
2022/10/27 02:24:32;;;;;;;1999.90;999.90;;;10.40;99.90;;;;;;5072230;28;20454;-66
2022/10/27 02:27:02;;;;;;;1999.90;999.90;;;10.30;99.90;;;;;;5072656;28;20447;-68
2022/10/27 02:29:33;;;;;;;1999.90;999.90;;;10.40;99.90;;;;;;5072814;28;20474;-66
2022/10/27 02:32:04;;;;;;;1999.90;999.90;;;10.30;99.90;;;;;;5071821;28;20447;-66
2022/10/27 02:34:32;;;;;;;1999.90;999.90;;;10.40;99.90;;;;;;5072120;28;20459;-66
2022/10/27 02:37:00;;;;;;;1999.90;999.90;;;10.40;99.90;;;;;;5072172;28;20439;-66
2022/10/27 02:39:27;;;;;;;1999.90;999.90;;;10.50;99.90;;;;;;5072367;28;20478;-66
2022/10/27 02:41:53;;;;;;;1999.90;999.90;;;10.60;99.90;;;;;;5071647;28;20447;-66
2022/10/27 02:44:20;;;;;;;1999.90;999.90;;;10.70;99.90;;;;;;5072183;28;20838;-66
2022/10/27 02:46:47;;;;;;;1999.90;999.90;;;10.70;99.90;;;;;;5071655;28;20443;-66
2022/10/27 02:49:15;;;;;;;1999.90;999.90;;;10.80;99.90;;;;;;5072095;28;20466;-66
2022/10/27 02:51:41;;;;;;;1999.90;999.90;;;10.80;99.90;;;;;;5071862;28;20455;-67
2022/10/27 02:54:08;;;;;;;1999.90;999.90;;;10.70;99.90;;;;;;5072760;28;20443;-66
2022/10/27 02:56:35;;;;;;;1999.90;999.90;;;10.70;99.90;;;;;;5072068;28;20451;-66
2022/10/27 02:59:02;;;;;;;1999.90;999.90;;;10.70;99.90;;;;;;5072065;28;20524;-67
2022/10/27 03:01:28;;;;;;;1999.90;999.90;;;10.60;99.90;;;;;;5071656;28;20446;-66
2022/10/27 03:03:55;;;;;;;1999.90;999.90;;;10.60;99.90;;;;;;5071239;28;20989;-66
2022/10/27 03:06:23;;;;;;;1999.90;999.90;;;10.50;99.90;;;;;;5071506;28;20462;-66
2022/10/27 03:08:50;;;;;;;1999.90;999.90;;;10.60;99.90;;;;;;5071960;28;20463;-66
2022/10/27 03:11:16;;;;;;;1999.90;999.90;;;10.50;99.90;;;;;;5071566;28;20458;-66
2022/10/27 03:13:43;;;;;;;1999.90;999.90;;;10.50;99.90;;;;;;5071262;28;20816;-66
2022/10/27 03:16:10;;;;;;;1999.90;999.90;;;10.40;99.90;;;;;;5071350;28;20447;-66
2022/10/27 03:18:37;;;;;;;1999.90;999.90;;;10.40;99.90;;;;;;5071421;28;20485;-66
2022/10/27 03:21:03;;;;;;;1999.90;999.90;;;10.30;99.90;;;;;;5071133;28;20450;-66
2022/10/27 03:23:31;;;;;;;1999.90;999.90;;;10.20;99.90;;;;;;5071192;28;20447;-66
2022/10/27 03:25:59;;;;;;;1999.90;999.90;;;10.10;99.90;;;;;;5071212;28;20447;-66
2022/10/27 03:28:28;;;;;;;1999.90;999.90;;;10.20;99.90;;;;;;5071349;28;20467;-68
2022/10/27 03:30:55;;;;;;;1999.90;999.90;;;10.10;99.90;;;;;;5070788;28;20475;-66
2022/10/27 03:33:22;;;;;;;1999.90;999.90;;;10.00;99.90;;;;;;5070953;28;20454;-66
2022/10/27 03:35:49;;;;;;;1999.90;999.90;;;10.00;99.90;;;;;;5070864;28;20835;-66
2022/10/27 03:38:15;;;;;;;1999.90;999.90;;;10.00;99.90;;;;;;5071434;28;20490;-66
2022/10/27 03:40:43;;;;;;;1999.90;999.90;;;9.90;99.90;;;;;;5070881;28;20443;-66
2022/10/27 03:43:10;;;;;;;1999.90;999.90;;;9.90;99.90;;;;;;5070881;28;20447;-66
2022/10/27 03:45:37;;;;;;;1999.90;999.90;;;9.80;99.90;;;;;;5070574;28;20447;-66
2022/10/27 03:48:06;;;;;;;1999.90;999.90;;;9.90;99.90;;;;;;5070892;28;20976;-66
2022/10/27 03:50:33;;;;;;;1999.90;999.90;;;9.80;99.90;;;;;;5071335;28;20822;-66
2022/10/27 03:53:02;;;;;;;1999.90;999.90;;;9.80;99.90;;;;;;5070466;28;20945;-66
2022/10/27 03:55:29;;;;;;;1999.90;999.90;;;9.90;99.90;;;;;;5070788;28;20459;-66
2022/10/27 03:57:57;;;;;;;1999.90;999.90;;;9.90;99.90;;;;;;5070071;28;20517;-66
2022/10/27 04:00:25;;;;;;;1999.90;999.90;;;10.00;99.90;;;;;;5070399;28;20443;-66
2022/10/27 04:02:54;;;;;;;1999.90;999.90;;;9.90;99.90;;;;;;5070082;28;20439;-66
2022/10/27 04:05:20;;;;;;;1999.90;999.90;;;9.80;99.90;;;;;;5070570;28;20498;-66
2022/10/27 04:07:47;;;;;;;1999.90;999.90;;;9.80;99.90;;;;;;5070750;28;20466;-66
2022/10/27 04:10:14;;;;;;;1999.90;999.90;;;9.80;99.90;;;;;;5070783;28;20439;-66
2022/10/27 04:12:48;;;;;;;1999.90;999.90;;;9.80;99.90;;;;;;5069772;28;20701;-66
2022/10/27 04:15:16;;;;;;;1999.90;999.90;;;9.80;99.90;;;;;;5069832;28;20960;-66
2022/10/27 04:17:43;;;;;;;1999.90;999.90;;;9.90;99.90;;;;;;5070718;28;20473;-67
2022/10/27 04:20:11;;;;;;;1999.90;999.90;;;9.90;99.90;;;;;;5070702;28;20454;-67
2022/10/27 04:22:39;;;;;;;1999.90;999.90;;;9.80;99.90;;;;;;5069915;28;20450;-66
2022/10/27 04:25:06;;;;;;;1999.90;999.90;;;9.80;99.90;;;;;;5071168;28;20452;-66
2022/10/27 04:27:33;;;;;;;1999.90;999.90;;;9.70;99.90;;;;;;5070589;28;20462;-66
2022/10/27 04:30:00;;;;;;;1999.90;999.90;;;9.70;99.90;;;;;;5070575;28;20838;-68
2022/10/27 04:32:28;;;;;;;1999.90;999.90;;;9.60;99.90;;;;;;5069822;28;20454;-68
2022/10/27 04:34:55;;;;;;;1999.90;999.90;;;9.50;99.90;;;;;;5070103;28;20447;-66
2022/10/27 04:37:21;;;;;;;1999.90;999.90;;;9.50;99.90;;;;;;5070556;28;20454;-67
2022/10/27 04:39:48;;;;;;;1999.90;999.90;;;9.50;99.90;;;;;;5070265;28;20493;-67
2022/10/27 04:42:15;;;;;;;1999.90;999.90;;;9.40;99.90;;;;;;5069191;28;20443;-67
2022/10/27 04:44:41;;;;;;;1999.90;999.90;;;9.50;99.90;;;;;;5069934;28;20542;-68
2022/10/27 04:47:08;;;;;;;1999.90;999.90;;;9.50;99.90;;;;;;5070092;28;20458;-68
2022/10/27 04:49:36;;;;;;;1999.90;999.90;;;9.40;99.90;;;;;;5070176;28;20439;-69
2022/10/27 04:52:03;;;;;;;1999.90;999.90;;;9.40;99.90;;;;;;5069215;28;20451;-68
2022/10/27 04:54:30;;;;;;;1999.90;999.90;;;9.50;99.90;;;;;;5069712;28;20458;-68
2022/10/27 04:56:57;;;;;;;1999.90;999.90;;;9.50;99.90;;;;;;5069781;28;20450;-68
2022/10/27 04:59:23;;;;;;;1999.90;999.90;;;9.50;99.90;;;;;;5069914;28;20490;-68
2022/10/27 05:01:50;;;;;;;1999.90;999.90;;;9.40;99.90;;;;;;5069126;28;20470;-68
2022/10/27 05:04:17;;;;;;;1999.90;999.90;;;9.50;99.90;;;;;;5069447;28;21112;-68
2022/10/27 05:06:45;;;;;;;1999.90;999.90;;;9.50;99.90;;;;;;5067203;28;20451;-67
2022/10/27 05:09:12;;;;;;;1999.90;999.90;;;9.50;99.90;;;;;;5059432;28;20476;-67
2022/10/27 05:11:38;;;;;;;1999.90;999.90;;;9.40;99.90;;;;;;5051839;28;20459;-67
2022/10/27 05:14:05;;;;;;;1999.90;999.90;;;9.50;99.90;;;;;;5056885;28;21060;-68
2022/10/27 05:16:32;;;;;;;1999.90;999.90;;;9.50;99.90;;;;;;5056848;28;20459;-68
2022/10/27 05:18:59;;;;;;;1999.90;999.90;;;9.50;99.90;;;;;;5065689;28;21037;-67
2022/10/27 05:21:27;;;;;;;1999.90;999.90;;;9.50;99.90;;;;;;5068272;28;20435;-68
2022/10/27 05:23:56;;;;;;;1999.90;999.90;;;9.50;99.90;;;;;;5068965;28;20471;-69
2022/10/27 05:26:31;;;;;;;1999.90;999.90;;;9.50;99.90;;;;;;5067673;28;20455;-67
2022/10/27 05:28:57;;;;;;;1999.90;999.90;;;9.60;99.90;;;;;;5068850;28;20554;-67
2022/10/27 05:31:24;;;;;;;1999.90;999.90;;;9.50;99.90;;;;;;5069135;28;20447;-68
2022/10/27 05:33:51;;;;;;;1999.90;999.90;;;9.50;99.90;;;;;;5069078;28;20766;-67
2022/10/27 05:36:18;;;;;;;1999.90;999.90;;;9.50;99.90;;;;;;5068942;28;20448;-66
2022/10/27 05:38:45;;;;;;;1999.90;999.90;;;9.50;99.90;;;;;;5069568;28;20491;-67
2022/10/27 05:41:14;;;;;;;1999.90;999.90;;;9.50;99.90;;;;;;5069004;28;20451;-68
2022/10/27 05:43:41;;;;;;;1999.90;999.90;;;9.70;99.90;;;;;;5068823;28;20976;-68
2022/10/27 05:46:08;;;;;;;1999.90;999.90;;;9.80;99.90;;;;;;5069218;28;20524;-68
2022/10/27 05:48:35;;;;;;;1999.90;999.90;;;9.90;99.90;;;;;;5069383;28;20455;-68
2022/10/27 05:51:01;;;;;;;1999.90;999.90;;;9.90;99.90;;;;;;5068892;28;20455;-68
2022/10/27 05:53:28;;;;;;;1999.90;999.90;;;9.90;99.90;;;;;;5069173;28;20443;-68
2022/10/27 05:55:55;;;;;;;1999.90;999.90;;;9.90;99.90;;;;;;5069136;28;20447;-67
2022/10/27 05:58:23;;;;;;;1999.90;999.90;;;9.80;99.90;;;;;;5069209;28;20483;-67
2022/10/27 06:00:50;;;;;;;1999.90;999.90;;;9.80;99.90;;;;;;5068783;28;20447;-68
2022/10/27 06:03:20;;;;;;;1999.90;999.90;;;9.80;99.90;;;;;;5068864;28;20450;-67
2022/10/27 06:05:47;;;;;;;1999.90;999.90;;;9.80;99.90;;;;;;5068772;28;20451;-67
2022/10/27 06:08:14;;;;;;;1999.90;999.90;;;9.80;99.90;;;;;;5069259;28;20490;-67
2022/10/27 06:10:41;;;;;;;1999.90;999.90;;;9.70;99.90;;;;;;5068682;28;20451;-67
2022/10/27 06:13:12;;;;;;;1999.90;999.90;;;9.80;99.90;;;;;;5068751;28;20447;-67
2022/10/27 06:15:41;;;;;;;1999.90;999.90;;;9.90;99.90;;;;;;5068861;28;20447;-67
2022/10/27 06:18:08;;;;;;;1999.90;999.90;;;9.90;99.90;;;;;;5068784;28;20457;-67
2022/10/27 06:20:34;;;;;;;1999.90;999.90;;;9.90;99.90;;;;;;5068839;28;20451;-67
2022/10/27 06:23:01;;;;;;;1999.90;999.90;;;9.90;99.90;;;;;;5071688;28;20453;-67
2022/10/27 06:25:28;;;;;;;1999.90;999.90;;;9.80;99.90;;;;;;5072439;28;20450;-67
2022/10/27 06:27:55;;;;;;;1999.90;999.90;;;9.80;99.90;;;;;;5072586;28;20816;-70
2022/10/27 06:30:22;;;;;;;1999.90;999.90;;;9.80;99.90;;;;;;5072652;28;20447;-69
2022/10/27 06:32:50;;;;;;;1999.90;999.90;;;9.90;99.90;;;;;;5071798;28;20442;-69
2022/10/27 06:35:17;;;;;;;1999.90;999.90;;;10.10;99.90;;;;;;5072210;28;20466;-68
2022/10/27 06:37:45;;;;;;;1999.90;999.90;;;10.20;99.90;;;;;;5072605;28;20507;-68
2022/10/27 06:40:14;;;;;;;1999.90;999.90;;;10.20;99.90;;;;;;5072553;28;20486;-68
2022/10/27 06:42:41;;;;;;;1999.90;999.90;;;10.30;99.90;;;;;;5071772;28;20446;-68
2022/10/27 06:45:09;;;;;;;1999.90;999.90;;;10.30;99.90;;;;;;5072215;28;20443;-68
2022/10/27 06:47:35;;;;;;;1999.90;999.90;;;10.30;99.90;;;;;;5072664;28;20834;-68
2022/10/27 06:50:05;;;;;;;1999.90;999.90;;;10.30;99.90;;;;;;5072667;28;20439;-67
2022/10/27 06:52:35;;;;;;;1999.90;999.90;;;10.30;99.90;;;;;;5071684;28;20459;-67
2022/10/27 06:55:02;;;;;;;1999.90;999.90;;;10.40;99.90;;;;;;5072031;28;20457;-68
2022/10/27 06:57:29;;;;;;;1999.90;999.90;;;10.50;99.90;;;;;;5072178;28;20805;-67
2022/10/27 06:59:56;;;;;;;1999.90;999.90;;;10.70;99.90;;;;;;5072379;28;20869;-68
2022/10/27 07:02:25;;;;;;;1999.90;999.90;;;10.80;99.90;;;;;;5071231;28;20465;-68
2022/10/27 07:04:51;;;;;;;1999.90;999.90;;;10.80;99.90;;;;;;5071840;28;20451;-68
2022/10/27 07:07:19;;;;;;;1999.90;999.90;;;10.90;99.90;;;;;;5071948;28;20448;-68
2022/10/27 07:09:46;;;;;;;1999.90;999.90;;;11.00;99.90;;;;;;5072012;28;20455;-68
2022/10/27 07:12:13;;;;;;;1999.90;999.90;;;11.10;99.90;;;;;;5070932;28;20877;-68
2022/10/27 07:14:40;;;;;;;1999.90;999.90;;;11.20;99.90;;;;;;5070896;28;20443;-68
2022/10/27 07:17:06;;;;;;;1999.90;999.90;;;11.20;99.90;;;;;;5071801;28;20473;-68
2022/10/27 07:19:33;;;;;;;1999.90;999.90;;;11.30;99.90;;;;;;5071590;28;20952;-68
2022/10/27 07:22:00;;;;;;;1999.90;999.90;;;11.30;99.90;;;;;;5070927;28;20458;-68
2022/10/27 07:24:28;;;;;;;1999.90;999.90;;;11.30;99.90;;;;;;5071102;28;20451;-68
2022/10/27 07:26:55;;;;;;;1999.90;999.90;;;11.40;99.90;;;;;;5071550;28;20442;-67
2022/10/27 07:29:21;;;;;;;1999.90;999.90;;;11.50;99.90;;;;;;5071338;28;20463;-67
2022/10/27 07:31:48;;;;;;;1999.90;999.90;;;11.60;99.90;;;;;;5070873;28;20443;-67
2022/10/27 07:34:15;;;;;;;1999.90;999.90;;;11.60;99.90;;;;;;5071376;28;20934;-73
2022/10/27 07:36:42;;;;;;;1999.90;999.90;;;11.70;99.90;;;;;;5071552;28;20465;-67
2022/10/27 07:39:09;;;;;;;1999.90;999.90;;;11.80;99.90;;;;;;5071123;28;20492;-65
2022/10/27 07:41:37;;;;;;;1999.90;999.90;;;11.80;99.90;;;;;;5070973;28;20445;-65
2022/10/27 07:44:04;;;;;;;1999.90;999.90;;;11.80;99.90;;;;;;5071127;28;20447;-65
2022/10/27 07:46:31;;;;;;;1999.90;999.90;;;11.90;99.90;;;;;;5071040;28;20842;-65
2022/10/27 07:48:57;;;;;;;1999.90;999.90;;;12.00;99.90;;;;;;5071037;28;20455;-65
2022/10/27 07:51:24;;;;;;;1999.90;999.90;;;12.20;99.90;;;;;;5070802;28;20447;-65
2022/10/27 07:53:51;;;;;;;1999.90;999.90;;;12.30;99.90;;;;;;5069701;28;20449;-65
2022/10/27 07:56:18;;;;;;;1999.90;999.90;;;12.40;99.90;;;;;;5069139;28;20458;-65
2022/10/27 07:58:48;;;;;;;1999.90;999.90;;;12.50;99.90;;;;;;5070963;28;20471;-68
2022/10/27 08:01:15;;;;;;;1999.90;999.90;;;12.70;99.90;;;;;;5070625;28;20443;-68
2022/10/27 08:03:41;;;;;;;1999.90;999.90;;;12.80;99.90;;;;;;5070444;28;20685;-68
2022/10/27 08:06:08;;;;;;;1999.90;999.90;;;12.90;99.90;;;;;;5070642;28;20453;-69
2022/10/27 08:08:35;;;;;;;1999.90;999.90;;;12.90;99.90;;;;;;5070830;28;20467;-68
2022/10/27 08:11:02;;;;;;;1999.90;999.90;;;13.00;99.90;;;;;;5070458;28;20442;-69
2022/10/27 08:13:28;;;;;;;1999.90;999.90;;;13.10;99.90;;;;;;5070330;28;20443;-68
2022/10/27 08:15:59;;;;;;;1999.90;999.90;;;13.20;99.90;;;;;;5070285;28;20447;-67
2022/10/27 08:18:26;;;;;;;1999.90;999.90;;;13.30;99.90;;;;;;5070497;28;20467;-66
2022/10/27 08:20:52;;;;;;;1999.90;999.90;;;13.30;99.90;;;;;;5070007;28;20489;-66
2022/10/27 08:23:23;;;;;;;1999.90;999.90;;;13.40;99.90;;;;;;5070281;28;20445;-67
2022/10/27 08:25:50;;;;;;;1999.90;999.90;;;13.40;99.90;;;;;;5070157;28;20768;-68
2022/10/27 08:28:17;;;;;;;1999.90;999.90;;;13.40;99.90;;;;;;5070378;28;20844;-67
2022/10/27 08:30:44;;;;;;;1999.90;999.90;;;13.50;99.90;;;;;;5069420;28;21759;-67
2022/10/27 08:33:12;;;;;;;1999.90;999.90;;;13.50;99.90;;;;;;5067267;28;20463;-67
2022/10/27 08:35:39;;;;;;;1999.90;999.90;;;13.60;99.90;;;;;;5069890;28;20485;-68
2022/10/27 08:38:09;;;;;;;1999.90;999.90;;;13.70;99.90;;;;;;5070058;28;20478;-68
2022/10/27 08:40:49;;;;;;;1999.90;999.90;;;13.70;99.90;;;;;;5069735;28;20483;-67
2022/10/27 08:43:46;;;;;;;1999.90;999.90;;;13.80;99.90;;;;;;5069759;28;20451;-67
2022/10/27 08:46:19;;;;;;;1999.90;999.90;;;14.00;99.90;;;;;;5069406;28;20949;-67
2022/10/27 08:48:49;;;;;;;1999.90;999.90;;;14.10;99.90;;;;;;5070253;28;20508;-71
2022/10/27 08:51:20;;;;;;;1999.90;999.90;;;14.20;99.90;;;;;;5069608;28;20481;-67
2022/10/27 08:53:50;;;;;;;1999.90;999.90;;;14.20;99.90;;;;;;5069519;28;20447;-68
2022/10/27 08:56:17;;;;;;;1999.90;999.90;;;14.40;99.90;;;;;;5069832;28;20470;-67
2022/10/27 08:58:45;;;;;;;1999.90;999.90;;;14.50;99.90;;;;;;5069925;28;20463;-68
2022/10/27 09:01:22;;;;;;;1999.90;999.90;;;14.60;99.90;;;;;;5069417;28;20491;-68
2022/10/27 09:04:04;;;;;;;1999.90;999.90;;;14.80;99.90;;;;;;5069496;28;20446;-67
2022/10/27 09:06:34;;;;;;;1999.90;999.90;;;14.90;99.90;;;;;;5069721;28;20457;-68
2022/10/27 09:09:06;;;;;;;1999.90;999.90;;;15.00;99.90;;;;;;5070006;28;20467;-67
2022/10/27 09:11:43;;;;;;;1999.90;999.90;;;15.20;99.90;;;;;;5069302;28;20431;-70
2022/10/27 09:14:38;;;;;;;1999.90;999.90;;;15.30;99.90;;;;;;5070205;28;20454;-68
2022/10/27 09:17:14;;;;;;;1999.90;999.90;;;15.50;99.90;;;;;;5070328;28;20454;-68
2022/10/27 09:19:45;;;;;;;1999.90;999.90;;;15.70;99.90;;;;;;5069912;28;20482;-67
2022/10/27 09:22:16;;;;;;;1999.90;999.90;;;16.00;99.90;;;;;;5069032;28;20462;-68
2022/10/27 09:24:44;;;;;;;1999.90;999.90;;;16.30;99.90;;;;;;5069337;28;21015;-68
2022/10/27 09:27:13;;;;;;;1999.90;999.90;;;16.60;99.90;;;;;;5069661;28;20447;-68
2022/10/27 09:29:42;;;;;;;1999.90;999.90;;;16.90;99.90;;;;;;5069968;28;20439;-68
2022/10/27 09:32:16;;;;;;;1999.90;999.90;;;17.30;99.90;;;;;;5068955;28;20442;-68
2022/10/27 09:34:50;;;;;;;1999.90;999.90;;;17.70;99.90;;;;;;5069478;28;20455;-68
2022/10/27 09:37:18;;;;;;;1999.90;999.90;;;18.10;99.90;;;;;;5069550;28;20449;-68
2022/10/27 09:39:48;;;;;;;1999.90;999.90;;;18.60;99.90;;;;;;5069428;28;20489;-68
2022/10/27 09:42:15;;;;;;;1999.90;999.90;;;19.00;99.90;;;;;;5068684;28;20443;-68
2022/10/27 09:44:49;;;;;;;1999.90;999.90;;;19.30;99.90;;;;;;5069277;28;20462;-68
2022/10/27 09:47:16;;;;;;;1999.90;999.90;;;19.60;99.90;;;;;;5069541;28;20450;-68
2022/10/27 09:49:47;;;;;;;1999.90;999.90;;;19.70;99.90;;;;;;5069523;28;20450;-70
2022/10/27 09:52:20;;;;;;;1999.90;999.90;;;20.10;99.90;;;;;;5068741;28;20450;-68
2022/10/27 09:54:52;;;;;;;1999.90;999.90;;;20.40;99.90;;;;;;5069254;28;20454;-68
2022/10/27 09:57:22;;;;;;;1999.90;999.90;;;20.90;99.90;;;;;;5071252;28;20450;-68
2022/10/27 09:59:52;;;;;;;1999.90;999.90;;;21.20;99.90;;;;;;5073311;28;20582;-67
2022/10/27 10:02:25;;;;;;;1999.90;999.90;;;21.70;99.90;;;;;;5072301;28;20443;-68
2022/10/27 10:04:53;;;;;;;1999.90;999.90;;;22.20;99.90;;;;;;5073044;28;20449;-68
2022/10/27 10:07:33;;;;;;;1999.90;999.90;;;22.70;99.90;;;;;;5073195;28;20469;-68
2022/10/27 10:10:07;;;;;;;1999.90;999.90;;;23.20;99.90;;;;;;5073081;28;20522;-68
2022/10/27 10:12:33;;;;;;;1999.90;999.90;;;23.60;99.90;;;;;;5072268;28;20442;-68
2022/10/27 10:15:19;;;;;;;1999.90;999.90;;;24.10;99.90;;;;;;5072522;28;20450;-68
2022/10/27 10:17:53;;;;;;;1999.90;999.90;;;24.40;99.90;;;;;;5073003;28;20477;-68
2022/10/27 10:20:42;;;;;;;1999.90;999.90;;;24.60;99.90;;;;;;5072868;28;20850;-68
2022/10/27 10:23:19;;;;;;;1999.90;999.90;;;24.90;99.90;;;;;;5067945;28;20451;-67
2022/10/27 10:25:48;;;;;;;1999.90;999.90;;;25.30;99.90;;;;;;5072763;28;20442;-68
2022/10/27 10:28:20;;;;;;;1999.90;999.90;;;25.60;99.90;;;;;;5072890;28;20492;-67
2022/10/27 10:30:51;;;;;;;1999.90;999.90;;;25.70;99.90;;;;;;5072519;28;20914;-67
2022/10/27 10:33:19;;;;;;;1999.90;999.90;;;25.60;99.90;;;;;;5072292;28;20443;-67
2022/10/27 10:35:48;;;;;;;1999.90;999.90;;;25.40;99.90;;;;;;5072021;28;20446;-67
2022/10/27 10:38:30;;;;;;;1999.90;999.90;;;25.10;99.90;;;;;;5072486;28;20474;-66
2022/10/27 10:41:01;;;;;;;1999.90;999.90;;;25.20;99.90;;;;;;5072183;28;20483;-66
2022/10/27 10:43:27;;;;;;;1999.90;999.90;;;25.40;99.90;;;;;;5072192;28;20443;-67
2022/10/27 10:45:54;;;;;;;1999.90;999.90;;;25.70;99.90;;;;;;5072043;28;20446;-67
2022/10/27 10:48:29;;;;;;;1999.90;999.90;;;25.80;99.90;;;;;;5072345;28;20471;-67
2022/10/27 10:50:58;;;;;;;1999.90;999.90;;;26.50;99.90;;;;;;5072118;28;20521;-67
2022/10/27 10:53:28;;;;;;;1999.90;999.90;;;26.50;99.80;;;;;;5072259;28;20458;-67
2022/10/27 10:55:57;;;;;;;1999.90;999.90;;;26.50;99.90;;;;;;5072077;28;20449;-68
2022/10/27 10:58:27;;;;;;;1999.90;999.90;;;26.80;99.90;;;;;;5072328;28;20474;-69
2022/10/27 11:00:56;;;;;;;1999.90;999.90;;;27.20;99.90;;;;;;5071875;28;20483;-67
2022/10/27 11:03:26;;;;;;;1999.90;999.90;;;27.70;98.80;;;;;;5071563;28;20937;-67
2022/10/27 11:05:58;;;;;;;1999.90;999.90;;;27.70;98.20;;;;;;5071728;28;20446;-67
2022/10/27 11:08:33;;;;;;;1999.90;999.90;;;27.60;97.20;;;;;;5071797;28;20459;-66
2022/10/27 11:11:02;;;;;;;1999.90;999.90;;;27.80;97.60;;;;;;5071700;28;20492;-66
2022/10/27 11:13:37;;;;;;;1999.90;999.90;;;27.70;96.80;;;;;;5071847;28;20447;-67
2022/10/27 11:16:07;;;;;;;1999.90;999.90;;;27.50;97.50;;;;;;5071806;28;20458;-67
2022/10/27 11:18:42;;;;;;;1999.90;999.90;;;27.70;97.80;;;;;;5071831;28;20466;-67
2022/10/27 11:21:15;;;;;;;1999.90;999.90;;;28.10;96.90;;;;;;5071439;28;20478;-67
2022/10/27 11:23:45;;;;;;;1999.90;999.90;;;28.90;96.60;;;;;;5068882;28;20456;-67
2022/10/27 11:26:14;;;;;;;1999.90;999.90;;;29.20;95.50;;;;;;5064678;28;20841;-67
2022/10/27 11:28:49;;;;;;;1999.90;999.90;;;29.80;93.90;;;;;;5066291;28;20459;-68
2022/10/27 11:31:23;;;;;;;1999.90;999.90;;;30.30;94.00;;;;;;5071449;28;20439;-68
2022/10/27 11:33:57;;;;;;;1999.90;999.90;;;30.60;93.10;;;;;;5071188;28;20454;-68
2022/10/27 11:36:32;;;;;;;1999.90;999.90;;;30.70;92.30;;;;;;5071860;28;20450;-67
2022/10/27 11:39:04;;;;;;;1999.90;999.90;;;30.20;91.90;;;;;;5072082;28;20462;-67
2022/10/27 11:41:36;;;;;;;1999.90;999.90;;;28.80;91.70;;;;;;5071301;28;20483;-66
2022/10/27 11:44:09;;;;;;;1999.90;999.90;;;27.50;94.00;;;;;;5071542;28;20450;-66
2022/10/27 11:46:43;;;;;;;1999.90;999.90;;;26.40;96.10;;;;;;5071008;28;20442;-66
2022/10/27 11:49:16;;;;;;;1999.90;999.90;;;25.60;97.90;;;;;;5071262;28;20964;-67
2022/10/27 11:51:49;;;;;;;1999.90;999.90;;;24.90;98.80;;;;;;5064881;28;20453;-67
2022/10/27 11:54:17;;;;;;;1999.90;999.90;;;24.50;99.90;;;;;;5070640;28;20443;-67
2022/10/27 11:56:57;;;;;;;1999.90;999.90;;;24.10;99.90;;;;;;5070766;28;20450;-67
2022/10/27 11:59:37;;;;;;;1999.90;999.90;;;23.80;99.90;;;;;;5071248;28;20536;-67
2022/10/27 12:02:23;;;;;;;1999.90;999.90;;;23.60;99.90;;;;;;5070191;28;20494;-66
2022/10/27 12:04:56;;;;;;;1999.90;999.90;;;23.40;99.90;;;;;;5070543;28;20454;-67
2022/10/27 12:07:38;;;;;;;1999.90;999.90;;;23.20;99.90;;;;;;5070819;28;20454;-68
2022/10/27 12:10:19;;;;;;;1999.90;999.90;;;23.00;99.90;;;;;;5070914;28;21131;-67
2022/10/27 12:12:50;;;;;;;1999.90;999.90;;;23.00;99.90;;;;;;5069560;28;20446;-67